createdAt,value
2023-07-27T00:00:16.334Z,0.00
2023-07-27T00:01:16.371Z,0.00
2023-07-27T00:02:16.287Z,0.00
2023-07-27T00:03:16.465Z,0.00
2023-07-27T00:04:16.243Z,0.00
2023-07-27T00:05:16.292Z,0.00
2023-07-27T00:06:16.220Z,0.00
2023-07-27T00:07:16.253Z,0.00
2023-07-27T00:08:16.250Z,0.00
2023-07-27T00:09:16.185Z,0.00
2023-07-27T00:10:16.268Z,0.00
2023-07-27T00:11:16.268Z,0.00
2023-07-27T00:12:16.355Z,0.00
2023-07-27T00:13:16.191Z,0.00
2023-07-27T00:14:16.133Z,0.00
2023-07-27T00:15:16.123Z,0.00
2023-07-27T00:16:16.153Z,0.00
2023-07-27T00:17:16.101Z,0.00
2023-07-27T00:18:16.171Z,0.00
2023-07-27T00:19:16.080Z,0.00
2023-07-27T00:20:16.105Z,0.00
2023-07-27T00:21:16.204Z,0.00
2023-07-27T00:22:16.040Z,0.00
2023-07-27T00:23:16.079Z,0.00
2023-07-27T00:25:33.618Z,0.00
2023-07-27T00:26:33.492Z,0.00
2023-07-27T00:27:33.237Z,0.00
2023-07-27T00:28:33.253Z,0.00
2023-07-27T00:29:33.219Z,0.00
2023-07-27T00:30:33.189Z,0.00
2023-07-27T00:31:33.248Z,0.00
2023-07-27T00:32:33.219Z,0.00
2023-07-27T00:33:33.167Z,0.00
2023-07-27T00:34:33.190Z,0.00
2023-07-27T00:35:33.131Z,0.00
2023-07-27T00:36:33.483Z,0.00
2023-07-27T00:37:33.109Z,0.00
2023-07-27T00:38:33.096Z,0.00
2023-07-27T00:39:33.161Z,0.00
2023-07-27T00:40:33.287Z,0.00
2023-07-27T00:41:33.064Z,0.00
2023-07-27T00:42:33.049Z,0.00
2023-07-27T00:43:33.064Z,0.00
2023-07-27T00:44:33.096Z,0.00
2023-07-27T00:45:33.078Z,0.00
2023-07-27T00:46:33.278Z,0.00
2023-07-27T00:47:33.025Z,0.00
2023-07-27T00:48:32.988Z,0.00
2023-07-27T00:49:33.022Z,0.00
2023-07-27T00:50:32.970Z,0.00
2023-07-27T00:51:32.983Z,0.00
2023-07-27T00:52:32.954Z,0.00
2023-07-27T00:53:33.011Z,0.00
2023-07-27T00:54:32.945Z,0.00
2023-07-27T00:55:32.925Z,0.00
2023-07-27T00:56:33.128Z,0.00
2023-07-27T00:57:32.933Z,0.00
2023-07-27T00:58:32.869Z,0.00
2023-07-27T00:59:32.882Z,0.00
2023-07-27T01:00:32.855Z,0.00
2023-07-27T01:01:32.865Z,0.00
2023-07-27T01:02:32.932Z,0.00
2023-07-27T01:03:32.894Z,0.00
2023-07-27T01:04:32.887Z,0.00
2023-07-27T01:05:32.812Z,0.00
2023-07-27T01:06:33.074Z,0.00
2023-07-27T01:07:32.788Z,0.00
2023-07-27T01:08:32.819Z,0.00
2023-07-27T01:09:32.818Z,0.00
2023-07-27T01:10:32.745Z,0.00
2023-07-27T01:11:32.758Z,0.00
2023-07-27T01:12:32.736Z,0.00
2023-07-27T01:13:32.725Z,0.00
2023-07-27T01:14:32.778Z,0.00
2023-07-27T01:15:32.708Z,0.00
2023-07-27T01:16:33.007Z,0.00
2023-07-27T01:17:32.702Z,0.00
2023-07-27T01:18:32.662Z,0.00
2023-07-27T01:19:32.726Z,0.00
2023-07-27T01:20:32.661Z,0.00
2023-07-27T01:21:32.641Z,0.00
2023-07-27T01:22:32.624Z,0.00
2023-07-27T01:23:32.616Z,0.00
2023-07-27T01:24:32.682Z,0.00
2023-07-27T01:25:32.590Z,0.00
2023-07-27T01:26:33.035Z,0.00
2023-07-27T01:27:32.582Z,0.00
2023-07-27T01:28:32.627Z,0.00
2023-07-27T01:29:32.554Z,0.00
2023-07-27T01:30:32.541Z,0.00
2023-07-27T01:31:32.550Z,0.00
2023-07-27T01:32:32.574Z,0.00
2023-07-27T01:33:32.554Z,0.00
2023-07-27T01:34:32.494Z,0.00
2023-07-27T01:35:32.500Z,0.00
2023-07-27T01:36:32.792Z,0.00
2023-07-27T01:37:32.462Z,0.00
2023-07-27T01:38:32.520Z,0.00
2023-07-27T01:39:32.460Z,0.00
2023-07-27T01:40:32.440Z,0.00
2023-07-27T01:41:32.421Z,0.00
2023-07-27T01:42:32.399Z,0.00
2023-07-27T01:43:32.454Z,0.00
2023-07-27T01:44:32.410Z,0.00
2023-07-27T01:45:32.424Z,0.00
2023-07-27T01:46:32.597Z,0.00
2023-07-27T01:47:32.382Z,0.00
2023-07-27T01:48:32.342Z,0.00
2023-07-27T01:49:32.342Z,0.00
2023-07-27T01:50:32.377Z,0.00
2023-07-27T01:51:32.318Z,0.00
2023-07-27T01:52:32.319Z,0.00
2023-07-27T01:53:32.279Z,0.00
2023-07-27T01:54:32.295Z,0.00
2023-07-27T01:55:32.333Z,0.00
2023-07-27T01:56:32.778Z,0.00
2023-07-27T01:57:32.274Z,0.00
2023-07-27T01:58:32.268Z,0.00
2023-07-27T01:59:32.215Z,0.00
2023-07-27T02:00:32.265Z,0.00
2023-07-27T02:01:32.228Z,0.00
2023-07-27T02:02:32.213Z,0.00
2023-07-27T02:03:32.202Z,0.00
2023-07-27T02:04:32.249Z,0.00
2023-07-27T02:05:32.184Z,0.00
2023-07-27T02:06:32.555Z,0.00
2023-07-27T02:07:32.140Z,0.00
2023-07-27T02:08:32.134Z,0.00
2023-07-27T02:09:32.184Z,0.00
2023-07-27T02:10:32.112Z,0.00
2023-07-27T02:11:32.101Z,0.00
2023-07-27T02:12:32.107Z,0.00
2023-07-27T02:13:32.089Z,0.00
2023-07-27T02:14:32.152Z,0.00
2023-07-27T02:15:32.079Z,0.00
2023-07-27T02:16:32.349Z,0.00
2023-07-27T02:17:32.062Z,0.00
2023-07-27T02:18:32.025Z,0.00
2023-07-27T02:19:32.093Z,0.00
2023-07-27T02:20:32.003Z,0.00
2023-07-27T02:21:32.008Z,0.00
2023-07-27T02:22:31.986Z,0.00
2023-07-27T02:23:31.972Z,0.00
2023-07-27T02:24:32.042Z,0.00
2023-07-27T02:25:31.952Z,0.00
2023-07-27T02:26:32.205Z,0.00
2023-07-27T02:27:31.976Z,0.00
2023-07-27T02:28:32.002Z,0.00
2023-07-27T02:29:31.992Z,0.00
2023-07-27T02:30:31.963Z,0.00
2023-07-27T02:31:31.974Z,0.00
2023-07-27T02:32:31.969Z,0.00
2023-07-27T02:33:31.877Z,0.00
2023-07-27T02:34:31.923Z,0.00
2023-07-27T02:35:31.847Z,0.00
2023-07-27T02:36:32.175Z,0.00
2023-07-27T02:37:31.863Z,0.00
2023-07-27T02:38:31.811Z,0.00
2023-07-27T02:39:31.845Z,0.00
2023-07-27T02:40:31.805Z,0.00
2023-07-27T02:41:31.787Z,0.00
2023-07-27T02:42:31.773Z,0.00
2023-07-27T02:43:31.792Z,0.00
2023-07-27T02:44:31.783Z,0.00
2023-07-27T02:45:31.766Z,0.00
2023-07-27T02:46:32.174Z,0.00
2023-07-27T02:47:31.777Z,0.00
2023-07-27T02:48:31.711Z,0.00
2023-07-27T02:49:31.765Z,0.00
2023-07-27T02:50:31.678Z,0.00
2023-07-27T02:51:31.698Z,0.00
2023-07-27T02:52:31.706Z,0.00
2023-07-27T02:53:31.649Z,0.00
2023-07-27T02:54:31.640Z,0.00
2023-07-27T02:55:31.629Z,0.00
2023-07-27T02:56:32.084Z,0.00
2023-07-27T02:57:31.631Z,0.00
2023-07-27T02:58:31.608Z,0.00
2023-07-27T02:59:31.581Z,0.00
2023-07-27T03:00:31.584Z,0.00
2023-07-27T03:01:31.661Z,0.00
2023-07-27T03:02:31.664Z,0.00
2023-07-27T03:03:31.548Z,0.00
2023-07-27T03:04:31.535Z,0.00
2023-07-27T03:05:31.539Z,0.00
2023-07-27T03:06:31.946Z,0.00
2023-07-27T03:07:31.485Z,0.00
2023-07-27T03:08:31.484Z,0.00
2023-07-27T03:09:31.477Z,0.00
2023-07-27T03:10:31.511Z,0.00
2023-07-27T03:11:31.544Z,0.00
2023-07-27T03:12:31.421Z,0.00
2023-07-27T03:13:31.429Z,0.00
2023-07-27T03:14:31.436Z,0.00
2023-07-27T03:15:31.409Z,0.00
2023-07-27T03:16:32.002Z,0.00
2023-07-27T03:17:31.456Z,0.00
2023-07-27T03:18:31.376Z,0.00
2023-07-27T03:19:31.368Z,0.00
2023-07-27T03:20:31.392Z,0.00
2023-07-27T03:21:31.384Z,0.00
2023-07-27T03:22:31.345Z,4.00
2023-07-27T03:23:31.329Z,4.00
2023-07-27T03:24:31.392Z,0.00
2023-07-27T03:25:31.371Z,4.00
2023-07-27T03:26:31.915Z,4.00
2023-07-27T03:27:31.307Z,0.00
2023-07-27T03:28:31.269Z,4.00
2023-07-27T03:29:31.254Z,4.00
2023-07-27T03:30:31.273Z,4.00
2023-07-27T03:31:31.315Z,8.00
2023-07-27T03:32:31.267Z,8.00
2023-07-27T03:33:31.220Z,8.00
2023-07-27T03:34:31.199Z,12.00
2023-07-27T03:35:31.205Z,12.00
2023-07-27T03:36:31.346Z,8.00
2023-07-27T03:37:31.189Z,12.00
2023-07-27T03:38:31.163Z,16.00
2023-07-27T03:39:31.152Z,16.00
2023-07-27T03:40:31.157Z,20.00
2023-07-27T03:41:31.183Z,20.00
2023-07-27T03:42:31.173Z,20.00
2023-07-27T03:43:31.102Z,24.00
2023-07-27T03:44:31.091Z,24.00
2023-07-27T03:45:31.084Z,24.00
2023-07-27T03:46:31.490Z,28.00
2023-07-27T03:47:31.102Z,28.00
2023-07-27T03:48:31.087Z,28.00
2023-07-27T03:49:31.060Z,36.00
2023-07-27T03:50:31.033Z,40.00
2023-07-27T03:51:31.061Z,40.00
2023-07-27T03:52:31.014Z,44.00
2023-07-27T03:53:31.051Z,44.00
2023-07-27T03:54:30.982Z,48.00
2023-07-27T03:55:31.025Z,52.00
2023-07-27T03:56:31.437Z,56.00
2023-07-27T03:57:30.951Z,60.00
2023-07-27T03:58:30.977Z,64.00
2023-07-27T03:59:30.931Z,68.00
2023-07-27T04:00:30.977Z,72.00
2023-07-27T04:01:30.914Z,80.00
2023-07-27T04:02:30.996Z,88.00
2023-07-27T04:03:30.888Z,100.00
2023-07-27T04:04:30.976Z,108.00
2023-07-27T04:05:30.874Z,116.00
2023-07-27T04:06:31.673Z,124.00
2023-07-27T04:07:30.850Z,128.00
2023-07-27T04:08:30.887Z,140.00
2023-07-27T04:09:30.819Z,144.00
2023-07-27T04:10:30.808Z,152.00
2023-07-27T04:11:30.879Z,156.00
2023-07-27T04:12:30.785Z,160.00
2023-07-27T04:13:30.820Z,164.00
2023-07-27T04:14:30.765Z,168.00
2023-07-27T04:15:30.765Z,168.00
2023-07-27T04:16:30.844Z,164.00
2023-07-27T04:17:30.994Z,168.00
2023-07-27T04:18:30.745Z,168.00
2023-07-27T04:19:30.712Z,172.00
2023-07-27T04:20:30.740Z,180.00
2023-07-27T04:21:30.718Z,180.00
2023-07-27T04:22:30.748Z,184.00
2023-07-27T04:23:30.739Z,188.00
2023-07-27T04:24:30.746Z,192.00
2023-07-27T04:25:30.643Z,196.00
2023-07-27T04:26:30.823Z,204.00
2023-07-27T04:27:30.680Z,220.00
2023-07-27T04:28:30.668Z,240.00
2023-07-27T04:29:30.617Z,264.00
2023-07-27T04:30:30.725Z,292.00
2023-07-27T04:31:30.582Z,328.00
2023-07-27T04:32:31.528Z,364.00
2023-07-27T04:33:30.555Z,396.00
2023-07-27T04:34:30.594Z,424.00
2023-07-27T04:35:30.576Z,448.00
2023-07-27T04:36:30.575Z,460.00
2023-07-27T04:37:30.594Z,452.00
2023-07-27T04:38:30.511Z,424.00
2023-07-27T04:39:30.509Z,396.00
2023-07-27T04:40:30.491Z,380.00
2023-07-27T04:41:30.481Z,380.00
2023-07-27T04:42:30.472Z,392.00
2023-07-27T04:43:30.580Z,408.00
2023-07-27T04:44:30.473Z,420.00
2023-07-27T04:45:30.446Z,420.00
2023-07-27T04:46:30.705Z,420.00
2023-07-27T04:47:30.557Z,416.00
2023-07-27T04:48:30.409Z,424.00
2023-07-27T04:49:30.414Z,444.00
2023-07-27T04:50:30.434Z,480.00
2023-07-27T04:51:30.385Z,516.00
2023-07-27T04:52:30.388Z,552.00
2023-07-27T04:53:30.350Z,568.00
2023-07-27T04:54:30.366Z,564.00
2023-07-27T04:55:30.411Z,540.00
2023-07-27T04:56:30.337Z,500.00
2023-07-27T04:57:30.321Z,464.00
2023-07-27T04:58:30.310Z,432.00
2023-07-27T04:59:30.295Z,416.00
2023-07-27T05:00:30.359Z,408.00
2023-07-27T05:01:30.359Z,408.00
2023-07-27T05:02:30.285Z,416.00
2023-07-27T05:03:30.246Z,420.00
2023-07-27T05:04:30.355Z,428.00
2023-07-27T05:05:30.229Z,428.00
2023-07-27T05:06:30.255Z,436.00
2023-07-27T05:07:30.216Z,440.00
2023-07-27T05:08:30.226Z,452.00
2023-07-27T05:09:30.247Z,460.00
2023-07-27T05:10:30.214Z,464.00
2023-07-27T05:11:30.205Z,468.00
2023-07-27T05:12:30.210Z,476.00
2023-07-27T05:13:30.201Z,484.00
2023-07-27T05:14:30.194Z,492.00
2023-07-27T05:15:30.132Z,508.00
2023-07-27T05:16:30.162Z,524.00
2023-07-27T05:17:30.178Z,540.00
2023-07-27T05:18:30.090Z,552.00
2023-07-27T05:19:30.175Z,564.00
2023-07-27T05:20:30.170Z,576.00
2023-07-27T05:21:30.079Z,596.00
2023-07-27T05:22:30.053Z,616.00
2023-07-27T05:23:30.042Z,632.00
2023-07-27T05:24:30.093Z,652.00
2023-07-27T05:25:30.075Z,668.00
2023-07-27T05:26:30.012Z,672.00
2023-07-27T05:27:29.983Z,676.00
2023-07-27T05:28:30.046Z,680.00
2023-07-27T05:29:29.976Z,684.00
2023-07-27T05:30:30.023Z,708.00
2023-07-27T05:31:29.976Z,736.00
2023-07-27T05:32:30.059Z,784.00
2023-07-27T05:33:29.922Z,840.00
2023-07-27T05:34:29.929Z,900.00
2023-07-27T05:35:29.953Z,936.00
2023-07-27T05:36:29.928Z,948.00
2023-07-27T05:37:29.877Z,944.00
2023-07-27T05:38:29.968Z,928.00
2023-07-27T05:39:29.863Z,912.00
2023-07-27T05:40:29.930Z,880.00
2023-07-27T05:41:29.869Z,840.00
2023-07-27T05:42:31.438Z,808.00
2023-07-27T05:43:29.840Z,796.00
2023-07-27T05:44:29.835Z,804.00
2023-07-27T05:45:29.802Z,828.00
2023-07-27T05:46:29.834Z,844.00
2023-07-27T05:47:29.879Z,848.00
2023-07-27T05:48:29.756Z,856.00
2023-07-27T05:49:29.785Z,884.00
2023-07-27T05:50:29.744Z,928.00
2023-07-27T05:51:29.729Z,976.00
2023-07-27T05:52:29.768Z,1000.00
2023-07-27T05:53:29.687Z,952.00
2023-07-27T05:54:29.749Z,1024.00
2023-07-27T05:55:29.718Z,1028.00
2023-07-27T05:56:29.789Z,1028.00
2023-07-27T05:57:29.688Z,1024.00
2023-07-27T05:58:29.653Z,1048.00
2023-07-27T05:59:29.683Z,1068.00
2023-07-27T06:00:29.643Z,1096.00
2023-07-27T06:01:31.696Z,1136.00
2023-07-27T06:02:29.694Z,1152.00
2023-07-27T06:03:29.653Z,1156.00
2023-07-27T06:04:29.635Z,1172.00
2023-07-27T06:05:29.643Z,1252.00
2023-07-27T06:06:29.612Z,1248.00
2023-07-27T06:07:29.563Z,1140.00
2023-07-27T06:08:29.576Z,1056.00
2023-07-27T06:09:29.543Z,944.00
2023-07-27T06:10:29.561Z,772.00
2023-07-27T06:11:29.565Z,1020.00
2023-07-27T06:12:29.514Z,1160.00
2023-07-27T06:13:29.497Z,1236.00
2023-07-27T06:14:29.485Z,1276.00
2023-07-27T06:15:29.774Z,1312.00
2023-07-27T06:16:29.581Z,1316.00
2023-07-27T06:17:29.480Z,984.00
2023-07-27T06:18:29.487Z,1028.00
2023-07-27T06:19:29.438Z,1348.00
2023-07-27T06:20:29.556Z,1316.00
2023-07-27T06:21:29.458Z,1304.00
2023-07-27T06:22:29.436Z,1272.00
2023-07-27T06:23:29.400Z,1384.00
2023-07-27T06:24:29.448Z,1196.00
2023-07-27T06:25:29.375Z,1644.00
2023-07-27T06:26:29.469Z,1620.00
2023-07-27T06:27:29.376Z,1860.00
2023-07-27T06:28:29.350Z,2104.00
2023-07-27T06:29:29.333Z,2036.00
2023-07-27T06:30:29.581Z,1896.00
2023-07-27T06:31:29.530Z,1708.00
2023-07-27T06:32:29.335Z,1472.00
2023-07-27T06:33:29.284Z,1396.00
2023-07-27T06:34:29.362Z,1400.00
2023-07-27T06:35:29.295Z,1508.00
2023-07-27T06:36:29.245Z,1464.00
2023-07-27T06:37:29.271Z,1268.00
2023-07-27T06:38:29.223Z,1376.00
2023-07-27T06:39:29.245Z,1384.00
2023-07-27T06:40:29.227Z,1320.00
2023-07-27T06:41:29.183Z,1280.00
2023-07-27T06:42:29.202Z,1236.00
2023-07-27T06:43:29.206Z,1236.00
2023-07-27T06:44:29.224Z,1260.00
2023-07-27T06:45:29.146Z,1296.00
2023-07-27T06:46:29.209Z,1264.00
2023-07-27T06:47:29.218Z,1268.00
2023-07-27T06:48:29.210Z,1252.00
2023-07-27T06:49:29.134Z,1196.00
2023-07-27T06:50:29.119Z,1032.00
2023-07-27T06:51:29.086Z,924.00
2023-07-27T06:52:29.162Z,944.00
2023-07-27T06:53:29.101Z,996.00
2023-07-27T06:54:29.109Z,996.00
2023-07-27T06:55:29.169Z,988.00
2023-07-27T06:56:29.253Z,1060.00
2023-07-27T06:57:29.004Z,1192.00
2023-07-27T06:58:29.027Z,1232.00
2023-07-27T06:59:30.654Z,1252.00
2023-07-27T07:00:29.034Z,1260.00
2023-07-27T07:01:29.119Z,1304.00
2023-07-27T07:02:29.022Z,1352.00
2023-07-27T07:03:29.069Z,1356.00
2023-07-27T07:04:28.962Z,1280.00
2023-07-27T07:05:28.949Z,1220.00
2023-07-27T07:06:28.936Z,1152.00
2023-07-27T07:07:28.986Z,1136.00
2023-07-27T07:08:28.933Z,1080.00
2023-07-27T07:09:28.900Z,1000.00
2023-07-27T07:10:28.892Z,936.00
2023-07-27T07:11:28.900Z,868.00
2023-07-27T07:12:28.903Z,924.00
2023-07-27T07:13:28.861Z,1072.00
2023-07-27T07:14:28.871Z,1276.00
2023-07-27T07:15:28.885Z,1492.00
2023-07-27T07:16:28.924Z,1280.00
2023-07-27T07:17:28.866Z,984.00
2023-07-27T07:18:28.810Z,1372.00
2023-07-27T07:19:28.798Z,1656.00
2023-07-27T07:20:28.840Z,1604.00
2023-07-27T07:21:28.787Z,1616.00
2023-07-27T07:22:28.786Z,1540.00
2023-07-27T07:23:28.803Z,1056.00
2023-07-27T07:24:28.848Z,1296.00
2023-07-27T07:25:28.745Z,1436.00
2023-07-27T07:26:28.766Z,1596.00
2023-07-27T07:27:28.732Z,1532.00
2023-07-27T07:28:28.714Z,1432.00
2023-07-27T07:29:28.753Z,1384.00
2023-07-27T07:30:28.701Z,1520.00
2023-07-27T07:31:28.698Z,1252.00
2023-07-27T07:32:28.686Z,1096.00
2023-07-27T07:33:28.700Z,1128.00
2023-07-27T07:34:28.674Z,936.00
2023-07-27T07:35:28.672Z,948.00
2023-07-27T07:36:28.626Z,1160.00
2023-07-27T07:37:28.649Z,1404.00
2023-07-27T07:38:28.590Z,1052.00
2023-07-27T07:39:28.634Z,1504.00
2023-07-27T07:40:28.659Z,1932.00
2023-07-27T07:41:28.580Z,1652.00
2023-07-27T07:42:28.553Z,1428.00
2023-07-27T07:43:28.583Z,1608.00
2023-07-27T07:44:28.560Z,1616.00
2023-07-27T07:45:28.566Z,1740.00
2023-07-27T07:46:28.585Z,1444.00
2023-07-27T07:47:28.526Z,1856.00
2023-07-27T07:48:28.501Z,1592.00
2023-07-27T07:49:28.493Z,2108.00
2023-07-27T07:50:28.459Z,2088.00
2023-07-27T07:51:28.499Z,2404.00
2023-07-27T07:52:28.479Z,2220.00
2023-07-27T07:53:35.631Z,1576.00
2023-07-27T07:54:29.418Z,1464.00
2023-07-27T07:55:28.432Z,1700.00
2023-07-27T07:56:28.419Z,1832.00
2023-07-27T07:57:28.445Z,2308.00
2023-07-27T07:58:28.383Z,1968.00
2023-07-27T07:59:28.379Z,2048.00
2023-07-27T08:00:28.427Z,2864.00
2023-07-27T08:01:28.370Z,2916.00
2023-07-27T08:02:28.514Z,2940.00
2023-07-27T08:03:28.334Z,2676.00
2023-07-27T08:04:28.329Z,2544.00
2023-07-27T08:05:28.310Z,2320.00
2023-07-27T08:06:28.321Z,2384.00
2023-07-27T08:07:28.396Z,2444.00
2023-07-27T08:08:28.281Z,2532.00
2023-07-27T08:09:28.309Z,2456.00
2023-07-27T08:10:28.275Z,2512.00
2023-07-27T08:11:28.257Z,2524.00
2023-07-27T08:12:28.225Z,1992.00
2023-07-27T08:13:28.286Z,1748.00
2023-07-27T08:14:28.211Z,1692.00
2023-07-27T08:15:29.252Z,1944.00
2023-07-27T08:16:28.261Z,1736.00
2023-07-27T08:17:28.219Z,2712.00
2023-07-27T08:18:28.169Z,2060.00
2023-07-27T08:19:28.258Z,2016.00
2023-07-27T08:20:28.178Z,2372.00
2023-07-27T08:21:28.157Z,2284.00
2023-07-27T08:22:28.122Z,2104.00
2023-07-27T08:23:28.133Z,1636.00
2023-07-27T08:24:28.184Z,1756.00
2023-07-27T08:25:28.134Z,1556.00
2023-07-27T08:26:28.081Z,1296.00
2023-07-27T08:27:28.083Z,1692.00
2023-07-27T08:28:28.086Z,1440.00
2023-07-27T08:29:28.113Z,1560.00
2023-07-27T08:30:28.176Z,1628.00
2023-07-27T08:31:28.042Z,1480.00
2023-07-27T08:32:28.051Z,1672.00
2023-07-27T08:33:28.012Z,1572.00
2023-07-27T08:34:28.059Z,1700.00
2023-07-27T08:35:28.124Z,1892.00
2023-07-27T08:36:28.890Z,1480.00
2023-07-27T08:37:28.628Z,1804.00
2023-07-27T08:38:28.405Z,2056.00
2023-07-27T08:39:27.983Z,1996.00
2023-07-27T08:40:27.972Z,2064.00
2023-07-27T08:41:27.972Z,1952.00
2023-07-27T08:42:30.293Z,2060.00
2023-07-27T08:43:27.922Z,2156.00
2023-07-27T08:44:27.965Z,2180.00
2023-07-27T08:45:28.885Z,2304.00
2023-07-27T08:46:27.953Z,1932.00
2023-07-27T08:47:27.880Z,2204.00
2023-07-27T08:48:28.254Z,2136.00
2023-07-27T08:49:27.892Z,2212.00
2023-07-27T08:50:27.822Z,2364.00
2023-07-27T08:51:27.821Z,2620.00
2023-07-27T08:52:27.813Z,2704.00
2023-07-27T08:53:27.850Z,2960.00
2023-07-27T08:54:27.818Z,2352.00
2023-07-27T08:55:27.828Z,2516.00
2023-07-27T08:56:27.760Z,2532.00
2023-07-27T08:57:27.781Z,2100.00
2023-07-27T08:58:27.746Z,1840.00
2023-07-27T08:59:27.778Z,1892.00
2023-07-27T09:00:27.728Z,1960.00
2023-07-27T09:01:27.830Z,2088.00
2023-07-27T09:02:27.742Z,2456.00
2023-07-27T09:03:27.773Z,2068.00
2023-07-27T09:04:27.674Z,2396.00
2023-07-27T09:05:27.660Z,2456.00
2023-07-27T09:06:27.706Z,2800.00
2023-07-27T09:07:27.636Z,3496.00
2023-07-27T09:08:27.645Z,3416.00
2023-07-27T09:09:27.624Z,3764.00
2023-07-27T09:10:27.645Z,3440.00
2023-07-27T09:11:27.591Z,2860.00
2023-07-27T09:12:27.601Z,2744.00
2023-07-27T09:13:27.628Z,2704.00
2023-07-27T09:14:28.505Z,2548.00
2023-07-27T09:15:27.648Z,1956.00
2023-07-27T09:16:27.699Z,1824.00
2023-07-27T09:17:27.617Z,1524.00
2023-07-27T09:18:27.561Z,1420.00
2023-07-27T09:19:27.508Z,1484.00
2023-07-27T09:20:27.548Z,1328.00
2023-07-27T09:21:27.497Z,1596.00
2023-07-27T09:22:27.496Z,1796.00
2023-07-27T09:23:27.513Z,2192.00
2023-07-27T09:24:27.565Z,2708.00
2023-07-27T09:25:27.475Z,3132.00
2023-07-27T09:26:27.609Z,3608.00
2023-07-27T09:27:27.421Z,3532.00
2023-07-27T09:28:27.430Z,4052.00
2023-07-27T09:29:27.420Z,4000.00
2023-07-27T09:30:27.469Z,3752.00
2023-07-27T09:31:27.412Z,2484.00
2023-07-27T09:32:27.422Z,2184.00
2023-07-27T09:33:27.522Z,1720.00
2023-07-27T09:34:27.401Z,1356.00
2023-07-27T09:35:27.338Z,1364.00
2023-07-27T09:36:30.362Z,1776.00
2023-07-27T09:37:27.397Z,3068.00
2023-07-27T09:38:27.325Z,4556.00
2023-07-27T09:39:27.338Z,4592.00
2023-07-27T09:40:27.284Z,4216.00
2023-07-27T09:41:27.267Z,3660.00
2023-07-27T09:42:27.336Z,3744.00
2023-07-27T09:43:27.248Z,3000.00
2023-07-27T09:44:27.237Z,2356.00
2023-07-27T09:45:27.302Z,2544.00
2023-07-27T09:46:27.238Z,2032.00
2023-07-27T09:47:27.229Z,2216.00
2023-07-27T09:48:29.182Z,2792.00
2023-07-27T09:49:27.226Z,3252.00
2023-07-27T09:50:48.462Z,2628.00
2023-07-27T09:51:27.161Z,2448.00
2023-07-27T09:52:27.272Z,2092.00
2023-07-27T09:53:27.151Z,1804.00
2023-07-27T09:54:27.121Z,2176.00
2023-07-27T09:55:27.254Z,2160.00
2023-07-27T09:56:27.206Z,2744.00
2023-07-27T09:57:27.089Z,3176.00
2023-07-27T09:58:27.123Z,3588.00
2023-07-27T09:59:27.062Z,3680.00
2023-07-27T10:00:27.107Z,2760.00
2023-07-27T10:01:27.097Z,2836.00
2023-07-27T10:02:31.838Z,2696.00
2023-07-27T10:03:28.177Z,2352.00
2023-07-27T10:04:27.127Z,2108.00
2023-07-27T10:05:27.074Z,1856.00
2023-07-27T10:06:27.035Z,1932.00
2023-07-27T10:07:28.506Z,2372.00
2023-07-27T10:08:27.987Z,3008.00
2023-07-27T10:09:26.982Z,2980.00
2023-07-27T10:10:26.944Z,2944.00
2023-07-27T10:11:26.929Z,3328.00
2023-07-27T10:12:27.056Z,3540.00
2023-07-27T10:13:26.927Z,3160.00
2023-07-27T10:14:26.896Z,2968.00
2023-07-27T10:15:26.903Z,2416.00
2023-07-27T10:16:26.995Z,2424.00
2023-07-27T10:17:26.930Z,2480.00
2023-07-27T10:18:26.870Z,3080.00
2023-07-27T10:19:26.843Z,3932.00
2023-07-27T10:20:26.919Z,4796.00
2023-07-27T10:21:26.891Z,4408.00
2023-07-27T10:22:26.836Z,4060.00
2023-07-27T10:23:26.832Z,3856.00
2023-07-27T10:24:26.829Z,3784.00
2023-07-27T10:25:26.784Z,4436.00
2023-07-27T10:26:26.815Z,4668.00
2023-07-27T10:27:29.540Z,5944.00
2023-07-27T10:28:26.821Z,5604.00
2023-07-27T10:29:26.800Z,5500.00
2023-07-27T10:30:26.772Z,5012.00
2023-07-27T10:31:26.884Z,4360.00
2023-07-27T10:32:27.649Z,4860.00
2023-07-27T10:33:26.696Z,4372.00
2023-07-27T10:34:27.387Z,4160.00
2023-07-27T10:35:26.703Z,4940.00
2023-07-27T10:36:26.715Z,5600.00
2023-07-27T10:37:26.688Z,5536.00
2023-07-27T10:38:26.641Z,5260.00
2023-07-27T10:39:26.682Z,4524.00
2023-07-27T10:40:26.740Z,4696.00
2023-07-27T10:41:26.607Z,5344.00
2023-07-27T10:42:26.666Z,6736.00
2023-07-27T10:43:26.599Z,7048.00
2023-07-27T10:44:26.598Z,6396.00
2023-07-27T10:45:26.727Z,5320.00
2023-07-27T10:46:30.420Z,5120.00
2023-07-27T10:47:27.730Z,4756.00
2023-07-27T10:48:26.561Z,4712.00
2023-07-27T10:49:27.891Z,4956.00
2023-07-27T10:50:26.603Z,4364.00
2023-07-27T10:51:26.515Z,4368.00
2023-07-27T10:52:26.518Z,3736.00
2023-07-27T10:53:26.559Z,4960.00
2023-07-27T10:54:26.491Z,4592.00
2023-07-27T10:55:26.454Z,4480.00
2023-07-27T10:56:26.513Z,3944.00
2023-07-27T10:57:26.456Z,4348.00
2023-07-27T10:58:26.444Z,5136.00
2023-07-27T10:59:26.454Z,3912.00
2023-07-27T11:00:26.498Z,3852.00
2023-07-27T11:01:26.444Z,3440.00
2023-07-27T11:02:26.534Z,3448.00
2023-07-27T11:03:26.453Z,4000.00
2023-07-27T11:04:26.442Z,3084.00
2023-07-27T11:05:29.146Z,4336.00
2023-07-27T11:06:26.346Z,3756.00
2023-07-27T11:07:26.413Z,2760.00
2023-07-27T11:08:26.332Z,3596.00
2023-07-27T11:09:26.312Z,3076.00
2023-07-27T11:10:26.298Z,2976.00
2023-07-27T11:11:26.288Z,2984.00
2023-07-27T11:12:26.333Z,2776.00
2023-07-27T11:13:26.278Z,2544.00
2023-07-27T11:14:26.259Z,3280.00
2023-07-27T11:15:26.253Z,3728.00
2023-07-27T11:16:26.299Z,2648.00
2023-07-27T11:17:26.317Z,3108.00
2023-07-27T11:18:26.219Z,3192.00
2023-07-27T11:19:26.228Z,2664.00
2023-07-27T11:20:26.423Z,2656.00
2023-07-27T11:21:26.189Z,2928.00
2023-07-27T11:22:26.181Z,2292.00
2023-07-27T11:23:26.154Z,2132.00
2023-07-27T11:24:26.211Z,2756.00
2023-07-27T11:25:26.140Z,2572.00
2023-07-27T11:26:26.190Z,2636.00
2023-07-27T11:27:26.158Z,2268.00
2023-07-27T11:28:26.172Z,2012.00
2023-07-27T11:29:26.106Z,2516.00
2023-07-27T11:30:26.165Z,2416.00
2023-07-27T11:31:26.084Z,2440.00
2023-07-27T11:32:26.288Z,2200.00
2023-07-27T11:33:26.061Z,2436.00
2023-07-27T11:34:26.039Z,1912.00
2023-07-27T11:35:26.087Z,2856.00
2023-07-27T11:36:26.017Z,3040.00
2023-07-27T11:37:26.016Z,3708.00
2023-07-27T11:38:26.071Z,3288.00
2023-07-27T11:39:26.024Z,3620.00
2023-07-27T11:40:25.979Z,3588.00
2023-07-27T11:41:46.922Z,4156.00
2023-07-27T11:42:27.029Z,4448.00
2023-07-27T11:43:25.952Z,3872.00
2023-07-27T11:44:25.946Z,4232.00
2023-07-27T11:45:25.938Z,3508.00
2023-07-27T11:46:25.993Z,3564.00
2023-07-27T11:47:26.135Z,3664.00
2023-07-27T11:48:26.015Z,4716.00
2023-07-27T11:49:25.881Z,5144.00
2023-07-27T11:50:25.939Z,4152.00
2023-07-27T11:51:26.570Z,4584.00
2023-07-27T11:52:25.846Z,4268.00
2023-07-27T11:53:38.636Z,3928.00
2023-07-27T11:54:26.891Z,4196.00
2023-07-27T11:55:25.823Z,3996.00
2023-07-27T11:56:25.800Z,2888.00
2023-07-27T11:57:25.799Z,2828.00
2023-07-27T11:58:25.793Z,3184.00
2023-07-27T11:59:25.841Z,2752.00
2023-07-27T12:00:25.804Z,2780.00
2023-07-27T12:01:25.816Z,2892.00
2023-07-27T12:02:28.207Z,2180.00
2023-07-27T12:03:25.910Z,2136.00
2023-07-27T12:04:25.854Z,2268.00
2023-07-27T12:05:25.740Z,2116.00
2023-07-27T12:06:25.704Z,2884.00
2023-07-27T12:07:25.956Z,3832.00
2023-07-27T12:09:25.693Z,2484.00
2023-07-27T12:12:45.944Z,1884.00
2023-07-27T12:14:26.658Z,2188.00
2023-07-27T12:15:25.600Z,1456.00
2023-07-27T12:16:26.430Z,1696.00
2023-07-27T12:18:25.604Z,1460.00
2023-07-27T12:19:25.562Z,1364.00
2023-07-27T12:20:55.176Z,1472.00
2023-07-27T12:21:29.499Z,1076.00
2023-07-27T12:24:26.538Z,1620.00
2023-07-27T12:26:28.826Z,1652.00
2023-07-27T12:27:25.559Z,1904.00
2023-07-27T12:30:25.429Z,1520.00
2023-07-27T12:32:25.477Z,2372.00
2023-07-27T12:33:25.424Z,2836.00
2023-07-27T12:34:25.788Z,3308.00
2023-07-27T12:35:25.919Z,3808.00
2023-07-27T12:36:25.457Z,2824.00
2023-07-27T12:39:25.359Z,2784.00
2023-07-27T12:41:25.301Z,2424.00
2023-07-27T12:42:25.328Z,2844.00
2023-07-27T12:43:25.318Z,4140.00
2023-07-27T12:44:25.360Z,3800.00
2023-07-27T12:45:25.313Z,4144.00